Delemont, Switzerland
Current Conditions -  °F | °C
As of 9:20 PM on Monday 22 Dec 2014 (Local Time) from LSZG Reporting Station
Moderate Fog Moderate Fog  
Wind Chill: 32°   Ceiling: 100
Heat Index: 32°   Visibility: 0.06mi
Dew Point: 30°   Wind: 1mph
Humidity: 93%   Direction: 320°NW
Pressure: 30.39"   Gusts: NA
Location:  47.37°N, 7.33°E
Report Text: LSZG 222020Z AUTO 32001KT 0100 FZFG VV001 M00/M01 Q1029
Loading
Personal Weather Stations






























Interactive Weather Map New forecast layout! Learn more

10-Day Weather Forecast

Advertisements
Track Severe Weather on mobile